Pearcot, Washington
Current Conditions -  °F | °C
As of 5:55 AM on Thursday 23 Oct 2014 (Local Time) from KEAT Reporting Station
Overcast Overcast  
Wind Chill: 46°   Ceiling: 8500
Heat Index: 48°   Visibility: 10mi
Dew Point: 43°   Wind: 5mph
Humidity: 83%   Direction: 320°NW
Pressure: 29.74"   Gusts: NA
Location:  47.3635°N, 120.348°W
Report Text: KEAT 231255Z AUTO 32004KT 10SM SCT070 OVC085 09/06 A2974 RMK AO2 SLP073 T00890061
Loading
Personal Weather Stations






























Interactive Weather Map New forecast layout! Learn more

10-Day Weather Forecast

Advertisements
Track Severe Weather on mobile